This is the latest recevied weather packets stored in our database for station/object EA5LU-10. If no packets are shown the sender has not sent any weather packets the latest 10 day(s).
| Time | Temp. | Humidity | Pressure | Rain* | Wind** | Luminosity | Snow |
|---|---|---|---|---|---|---|---|
| 1777395680 | 32.78° C | 32% | 999.7 hPa | - | - | - | - |
| 1777394779 | 32.78° C | 33% | 999.7 hPa | - | - | - | - |
| 1777393879 | 32.22° C | 34% | 999.7 hPa | - | - | - | - |
| 1777392978 | 32.78° C | 32% | 999.8 hPa | - | - | - | - |
| 1777392077 | 32.22° C | 32% | 1000 hPa | - | - | - | - |
| 1777391176 | 32.22° C | 33% | 1000 hPa | - | - | - | - |
| 1777390275 | 31.11° C | 34% | 1000.2 hPa | - | - | - | - |
| 1777389374 | 31.11° C | 35% | 1000.3 hPa | - | - | - | - |
| 1777388474 | 30° C | 36% | 1000.7 hPa | - | - | - | - |
| 1777387573 | 28.89° C | 40% | 1000.9 hPa | - | - | - | - |
| 1777386672 | 28.89° C | 42% | 1001.2 hPa | - | - | - | - |
| 1777385771 | 27.22° C | 44% | 1001.4 hPa | - | - | - | - |
| 1777384870 | 27.78° C | 43% | 1001.7 hPa | - | - | - | - |
| 1777383969 | 28.89° C | 41% | 1001.7 hPa | - | - | - | - |
| 1777383068 | 28.33° C | 42% | 1002 hPa | - | - | - | - |
| 1777382168 | 27.78° C | 43% | 1002 hPa | - | - | - | - |
| 1777381267 | 27.78° C | 45% | 1002.2 hPa | - | - | - | - |
| 1777380366 | 25.56° C | 48% | 1002.8 hPa | - | - | - | - |
| 1777379465 | 26.11° C | 46% | 1003 hPa | - | - | - | - |
| 1777378564 | 24.44° C | 52% | 1003.2 hPa | - | - | - | - |
| 1777377663 | 25° C | 48% | 1003.4 hPa | - | - | - | - |
| 1777376763 | 24.44° C | 48% | 1003.4 hPa | - | - | - | - |
| 1777375862 | 23.33° C | 50% | 1003.3 hPa | - | - | - | - |
| 1777374961 | 22.78° C | 54% | 1003.4 hPa | - | - | - | - |
| 1777374060 | 23.33° C | 52% | 1003.5 hPa | - | - | - | - |
* Rain since midnight (hover to see other rain measurements)
** Current wind speed in m/s (hover to see current wind gust speed)